Aérodrome :
LOGIN :

S'inscrire | Disclaimer

   EN    FR    IT 

 










Légende :    VFR   VFR Marginal   IFR   IFR Intensif   IFR Très Intensif
Visi : 
Plafond : 
>= 8 km
>= 3000ft
5 à 8 km
1000 à 3000 ft
1500m à 5 km
500 à 1000 ft
800 à 1500m
200 à 500 ft
< 800m
< 200 ft
Symboles :   Orages  Brouillard  Fortes neiges  Fortes précipitations  Vent > 20 kt
SIGMETs :   Divers  Orages  Givrage  Turbulence  Onde Orograph.  Cendres Volcan.







- Altitude de l'aérodrome : 25 ft
- Code IATA : QCY


EGXC - RAF Coningsby

DERNIER METAR :
  • 161350Z 34007KT 9999 SCT028 BKN250 17/09 Q1022 NOSIG RMK BLU BLU

METARs EXPIRÉS :
  • 161320Z 33005KT 9999 FEW025 BKN250 16/10 Q1022 NOSIG RMK BLU BLU
  • 161250Z 32005KT 9999 SCT025 BKN250 16/11 Q1022 NOSIG RMK BLU BLU
  • 161220Z 35005KT 9999 FEW020 BKN025 15/10 Q1022 NOSIG RMK BLU BLU
  • 161150Z 31004KT 9999 FEW020 BKN025 16/11 Q1022 NOSIG RMK BLU BLU
  • 161121Z 35005KT 9999 SCT018 SCT025 BKN250 15/12 Q1022 BECMG SCT025 RMK WHT BECMG BLU
  • 161050Z 34005KT 9999 FEW015 OVC025 14/11 Q1022 NSOIG RMK BLU BLU

TAF AMD TAF EGXC
Valide du 16 à 11h jusqu'au 17 à 03h UTC


161133Z 1611/1703 35006KT 9999 BKN020
BECMG 1611/1612 BKN030
Pas de NOTAMs connus pour ce terrain.



MET'MAP, la Météo Aéronautique d'un coup d'oeil ! - Copyright ORBIFLY Décembre 2007 - Disclaimer

ORBIFLY MET'MAP TEAM :

Programmation & Développement : Alexandra Zaïnal
Conception & Développement : Baudouin d'Aumeries
Co-Programmation & Développement : Marc-Olivier Méhu
Soutien technique & logistique : Manuel Goepfert

Contact : metmap@orbifly.com




SOURCES & CREDITS :

   NOAA